Time;durP1;ratioP1;P1;durP2;ratioP2;P2;SDS_P1;SDS_P2;PMS_P1;PMS_P2;Temp;Humidity;BMP_temperature;BMP_pressure;BME280_temperature;BME280_humidity;BME280_pressure;Samples;Min_cycle;Max_cycle;Signal;HPM_P1;HPM_P2
2020/12/07 08:16:14;;;;;;;93.97;20.10;;;;;;;;;;5068940;28;20033;-76
2020/12/07 08:18:39;;;;;;;88.15;19.60;;;;;;;;;;5062179;28;20112;-76
2020/12/07 08:21:05;;;;;;;95.50;21.63;;;;;;;;;;5058556;28;20108;-75
2020/12/07 08:23:34;;;;;;;99.95;21.75;;;;;;;;;;5069104;28;20029;-75
2020/12/07 08:26:03;;;;;;;93.63;19.45;;;;;;;;;;5068464;28;20520;-75
2020/12/07 08:28:31;;;;;;;93.40;20.83;;;;;;;;;;5065171;28;20025;-75
2020/12/07 08:31:02;;;;;;;83.35;19.10;;;;;;;;;;5057917;28;20109;-75
2020/12/07 08:33:28;;;;;;;102.50;19.83;;;;;;;;;;5064239;28;20036;-75
2020/12/07 08:35:54;;;;;;;95.47;19.83;;;;;;;;;;5059286;28;20017;-76
2020/12/07 08:38:30;;;;;;;105.65;19.42;;;;;;;;;;5057415;28;20025;-76
2020/12/07 08:41:02;;;;;;;86.93;18.52;;;;;;;;;;5045193;28;20519;-75
2020/12/07 08:43:28;;;;;;;119.97;20.77;;;;;;;;;;5046699;28;20033;-76
2020/12/07 08:45:53;;;;;;;147.77;23.17;;;;;;;;;;5047729;28;20107;-75
2020/12/07 08:48:18;;;;;;;138.10;21.02;;;;;;;;;;5047287;28;20075;-75
2020/12/07 08:50:43;;;;;;;110.78;19.77;;;;;;;;;;5048257;28;20064;-76
2020/12/07 08:53:09;;;;;;;147.77;20.67;;;;;;;;;;5047181;28;20416;-76
2020/12/07 08:55:34;;;;;;;126.28;22.60;;;;;;;;;;5045500;28;20021;-75
2020/12/07 08:57:59;;;;;;;186.23;22.38;;;;;;;;;;5048157;28;20534;-75
2020/12/07 09:00:24;;;;;;;178.85;22.88;;;;;;;;;;5047339;28;20528;-75
2020/12/07 09:02:50;;;;;;;213.57;24.10;;;;;;;;;;5045457;28;20467;-76
2020/12/07 09:05:15;;;;;;;176.52;23.23;;;;;;;;;;5045112;28;20468;-75
2020/12/07 09:07:40;;;;;;;231.07;26.13;;;;;;;;;;5046098;28;20068;-75
2020/12/07 09:10:06;;;;;;;203.48;26.02;;;;;;;;;;5045967;28;20024;-75
2020/12/07 09:12:31;;;;;;;255.00;25.38;;;;;;;;;;5059792;28;20111;-75
2020/12/07 09:14:56;;;;;;;118.45;22.05;;;;;;;;;;5039409;28;20033;-75
2020/12/07 09:17:22;;;;;;;137.75;21.67;;;;;;;;;;5033014;28;20025;-75
2020/12/07 09:19:47;;;;;;;115.57;21.88;;;;;;;;;;5032832;28;20423;-74
2020/12/07 09:22:13;;;;;;;144.35;22.83;;;;;;;;;;5032265;28;20381;-75
2020/12/07 09:24:38;;;;;;;107.18;21.75;;;;;;;;;;5032727;28;20029;-75
2020/12/07 09:27:04;;;;;;;84.07;20.60;;;;;;;;;;5033039;28;20021;-75
2020/12/07 09:29:29;;;;;;;88.72;19.98;;;;;;;;;;5033934;28;20107;-77
2020/12/07 09:31:54;;;;;;;77.75;20.38;;;;;;;;;;5034615;28;20105;-75
2020/12/07 09:34:19;;;;;;;77.88;20.92;;;;;;;;;;5033925;28;20458;-76
2020/12/07 09:36:45;;;;;;;69.07;20.23;;;;;;;;;;5028934;28;20266;-75
2020/12/07 09:39:10;;;;;;;62.40;20.27;;;;;;;;;;5031254;28;20371;-75
2020/12/07 09:41:35;;;;;;;64.43;20.55;;;;;;;;;;5031743;28;20116;-75
2020/12/07 09:44:01;;;;;;;61.85;19.40;;;;;;;;;;5031760;28;20481;-75
2020/12/07 09:46:26;;;;;;;62.58;18.02;;;;;;;;;;5012280;28;20076;-76
2020/12/07 09:48:51;;;;;;;59.88;16.98;;;;;;;;;;5012897;28;20038;-75
2020/12/07 09:51:16;;;;;;;56.03;17.90;;;;;;;;;;5011840;28;20037;-75
2020/12/07 09:53:42;;;;;;;55.10;18.67;;;;;;;;;;5012372;28;20010;-75
2020/12/07 09:56:07;;;;;;;49.70;17.38;;;;;;;;;;5011632;28;20026;-74
2020/12/07 09:58:32;;;;;;;53.05;19.10;;;;;;;;;;5011942;28;20069;-75
2020/12/07 10:00:58;;;;;;;49.28;20.48;;;;;;;;;;5012055;28;20053;-75
2020/12/07 10:03:23;;;;;;;51.47;20.13;;;;;;;;;;5025667;28;20033;-77
2020/12/07 10:05:48;;;;;;;57.03;19.63;;;;;;;;;;5051599;28;20029;-74
2020/12/07 10:08:13;;;;;;;49.70;18.65;;;;;;;;;;5051750;28;20016;-75
2020/12/07 10:10:39;;;;;;;47.58;18.05;;;;;;;;;;5044316;28;20126;-75
2020/12/07 10:13:04;;;;;;;40.17;17.48;;;;;;;;;;5031182;28;20033;-75
2020/12/07 10:15:29;;;;;;;35.03;15.30;;;;;;;;;;5034501;28;20048;-76
2020/12/07 10:17:55;;;;;;;39.00;14.57;;;;;;;;;;5036967;28;20029;-75
2020/12/07 10:20:20;;;;;;;34.38;14.55;;;;;;;;;;5044634;28;20021;-75
2020/12/07 10:22:45;;;;;;;30.08;14.70;;;;;;;;;;5045818;28;20045;-76
2020/12/07 10:25:10;;;;;;;29.30;13.63;;;;;;;;;;5039176;28;20025;-75
2020/12/07 10:27:36;;;;;;;26.63;12.93;;;;;;;;;;5040973;28;20115;-75
2020/12/07 10:30:01;;;;;;;25.90;13.20;;;;;;;;;;5039622;28;20017;-75
2020/12/07 10:32:27;;;;;;;31.08;13.45;;;;;;;;;;5031248;28;20400;-76
2020/12/07 10:34:52;;;;;;;23.73;11.65;;;;;;;;;;5030487;28;20039;-75
2020/12/07 10:37:17;;;;;;;21.73;11.25;;;;;;;;;;5036079;28;20029;-74
2020/12/07 10:39:43;;;;;;;26.55;11.48;;;;;;;;;;5038233;28;20025;-75
2020/12/07 10:42:08;;;;;;;22.73;10.75;;;;;;;;;;5035443;28;20496;-75
2020/12/07 10:44:34;;;;;;;21.60;11.18;;;;;;;;;;5034648;28;20079;-76
2020/12/07 10:46:59;;;;;;;27.20;12.60;;;;;;;;;;5038151;28;20034;-75
2020/12/07 10:49:24;;;;;;;24.30;11.45;;;;;;;;;;5046398;28;20086;-75
2020/12/07 10:51:50;;;;;;;23.52;12.45;;;;;;;;;;5039454;28;20074;-75
2020/12/07 10:54:15;;;;;;;21.63;10.80;;;;;;;;;;5029299;28;20056;-75
2020/12/07 10:56:44;;;;;;;23.08;10.77;;;;;;;;;;5029351;28;20052;-81
2020/12/07 10:59:09;;;;;;;21.83;10.45;;;;;;;;;;5031354;28;20033;-75
2020/12/07 11:01:34;;;;;;;22.55;10.68;;;;;;;;;;5029060;28;20049;-76
2020/12/07 11:04:00;;;;;;;23.40;11.85;;;;;;;;;;5038614;28;20037;-75
2020/12/07 11:06:31;;;;;;;22.23;11.30;;;;;;;;;;5049963;28;20024;-79
2020/12/07 11:08:58;;;;;;;25.83;10.90;;;;;;;;;;5048762;28;20111;-78
2020/12/07 11:11:23;;;;;;;21.08;10.38;;;;;;;;;;5037563;28;20045;-75
2020/12/07 11:13:49;;;;;;;24.67;11.23;;;;;;;;;;5050698;28;20727;-75
2020/12/07 11:16:15;;;;;;;18.42;10.68;;;;;;;;;;5050780;28;20495;-75
2020/12/07 11:18:40;;;;;;;18.50;10.10;;;;;;;;;;5050557;28;20044;-75
2020/12/07 11:21:15;;;;;;;17.63;9.45;;;;;;;;;;5050121;28;20013;-75
2020/12/07 11:23:46;;;;;;;18.38;10.13;;;;;;;;;;5050487;28;20029;-75
2020/12/07 11:26:12;;;;;;;17.20;9.80;;;;;;;;;;5050016;28;20033;-75
2020/12/07 11:28:38;;;;;;;17.92;9.43;;;;;;;;;;5049952;28;20568;-75
2020/12/07 11:31:04;;;;;;;18.30;9.85;;;;;;;;;;5050071;28;20025;-74
2020/12/07 11:33:30;;;;;;;21.10;10.73;;;;;;;;;;5036354;28;20466;-75
2020/12/07 11:35:55;;;;;;;25.10;11.25;;;;;;;;;;5029715;28;20033;-74
2020/12/07 11:38:22;;;;;;;20.60;10.77;;;;;;;;;;5030531;28;20434;-74
2020/12/07 11:45:43;;;;;;;21.52;11.50;;;;;;;;;;5028611;28;20025;-75
2020/12/07 11:48:09;;;;;;;22.05;11.93;;;;;;;;;;5029660;28;20047;-75
2020/12/07 11:50:35;;;;;;;26.50;12.48;;;;;;;;;;5029817;28;20073;-75
2020/12/07 11:53:00;;;;;;;30.38;14.15;;;;;;;;;;5028092;28;20480;-75
2020/12/07 11:55:25;;;;;;;20.38;12.35;;;;;;;;;;5029452;28;20033;-79
2020/12/07 11:57:51;;;;;;;32.42;15.52;;;;;;;;;;5028834;28;20029;-75
2020/12/07 12:00:16;;;;;;;36.83;17.88;;;;;;;;;;5029428;28;20032;-74
2020/12/07 12:02:41;;;;;;;47.08;21.35;;;;;;;;;;5029695;28;20445;-75
2020/12/07 12:05:06;;;;;;;40.75;19.15;;;;;;;;;;5029697;28;20031;-75
2020/12/07 12:07:32;;;;;;;43.00;21.58;;;;;;;;;;5029611;28;20020;-75
2020/12/07 12:09:57;;;;;;;32.40;15.65;;;;;;;;;;5030026;28;20417;-74
2020/12/07 12:12:22;;;;;;;23.85;12.88;;;;;;;;;;5049737;28;20041;-75
2020/12/07 12:14:48;;;;;;;21.90;12.52;;;;;;;;;;5038501;28;20348;-75
2020/12/07 12:17:13;;;;;;;25.63;12.35;;;;;;;;;;5027827;28;20036;-74
2020/12/07 12:19:38;;;;;;;23.92;11.60;;;;;;;;;;5029547;28;20034;-74
2020/12/07 12:22:04;;;;;;;24.65;11.95;;;;;;;;;;5029701;28;20017;-76
2020/12/07 12:24:29;;;;;;;24.45;13.00;;;;;;;;;;5029396;28;20034;-75
2020/12/07 12:26:54;;;;;;;23.98;12.50;;;;;;;;;;5029216;28;20048;-74
2020/12/07 12:29:19;;;;;;;20.33;12.10;;;;;;;;;;5029178;28;20009;-74
2020/12/07 12:31:45;;;;;;;25.98;12.30;;;;;;;;;;5029733;28;20394;-74
2020/12/07 12:34:10;;;;;;;26.05;12.38;;;;;;;;;;5029758;28;20419;-74
2020/12/07 12:36:36;;;;;;;19.85;11.27;;;;;;;;;;5029796;28;20025;-80
2020/12/07 12:39:01;;;;;;;19.17;10.18;;;;;;;;;;5030026;28;20040;-75
2020/12/07 12:41:26;;;;;;;19.45;10.52;;;;;;;;;;5029333;28;20045;-75
2020/12/07 12:43:51;;;;;;;22.10;10.73;;;;;;;;;;5029467;28;20095;-75
2020/12/07 12:46:17;;;;;;;20.58;10.07;;;;;;;;;;5029563;28;20448;-74
2020/12/07 12:48:42;;;;;;;16.35;9.00;;;;;;;;;;5031742;28;20465;-75
2020/12/07 12:51:09;;;;;;;18.15;9.40;;;;;;;;;;5033399;28;20465;-75
2020/12/07 12:53:35;;;;;;;15.98;8.82;;;;;;;;;;5032497;28;20381;-75
2020/12/07 12:56:00;;;;;;;23.42;10.95;;;;;;;;;;5037830;28;20029;-74
2020/12/07 12:58:25;;;;;;;16.80;10.35;;;;;;;;;;5042672;28;20104;-74
2020/12/07 13:00:51;;;;;;;19.45;10.02;;;;;;;;;;5041192;28;20119;-75
2020/12/07 13:03:16;;;;;;;15.35;9.45;;;;;;;;;;5042860;28;20481;-75
2020/12/07 13:05:42;;;;;;;16.48;9.18;;;;;;;;;;5042992;28;20421;-74
2020/12/07 13:08:07;;;;;;;15.82;8.20;;;;;;;;;;5036146;28;20033;-74
2020/12/07 13:10:33;;;;;;;16.52;8.55;;;;;;;;;;5038912;28;20493;-74
2020/12/07 13:12:59;;;;;;;17.40;8.85;;;;;;;;;;5052754;28;20024;-74
2020/12/07 13:15:25;;;;;;;15.35;8.65;;;;;;;;;;5052622;28;20039;-75
2020/12/07 13:18:12;;;;;;;17.25;8.82;;;;;;;;;;5052937;28;20108;-74
2020/12/07 13:20:41;;;;;;;17.85;9.45;;;;;;;;;;5051692;28;20109;-74
2020/12/07 13:23:30;;;;;;;19.58;10.15;;;;;;;;;;5052698;28;20060;-74
2020/12/07 13:26:03;;;;;;;16.85;9.13;;;;;;;;;;5052579;28;20567;-75
2020/12/07 13:28:29;;;;;;;15.68;9.10;;;;;;;;;;5052438;28;20036;-76
2020/12/07 13:30:54;;;;;;;16.60;9.30;;;;;;;;;;5052089;28;20041;-74
2020/12/07 13:33:19;;;;;;;18.60;8.85;;;;;;;;;;5053062;28;20017;-74
2020/12/07 13:35:44;;;;;;;20.70;9.55;;;;;;;;;;5052338;28;20056;-75
2020/12/07 13:38:10;;;;;;;18.80;8.65;;;;;;;;;;5051849;28;20049;-75
2020/12/07 13:40:36;;;;;;;17.50;9.55;;;;;;;;;;5039980;28;20102;-76
2020/12/07 13:43:02;;;;;;;18.70;8.02;;;;;;;;;;5032162;28;20029;-78
2020/12/07 13:45:27;;;;;;;13.63;7.80;;;;;;;;;;5032205;28;20025;-75
2020/12/07 13:47:53;;;;;;;15.63;8.00;;;;;;;;;;5032685;28;20024;-74
2020/12/07 13:50:18;;;;;;;15.50;8.20;;;;;;;;;;5032103;28;20482;-75
2020/12/07 13:52:44;;;;;;;14.18;6.80;;;;;;;;;;5031839;28;20585;-74
2020/12/07 13:55:09;;;;;;;11.98;7.05;;;;;;;;;;5032025;28;20080;-74
2020/12/07 13:57:34;;;;;;;14.57;7.05;;;;;;;;;;5042985;28;20090;-74
2020/12/07 13:59:59;;;;;;;17.50;8.57;;;;;;;;;;5043835;28;20396;-74
2020/12/07 14:02:25;;;;;;;20.08;9.85;;;;;;;;;;5040946;28;20060;-74
2020/12/07 14:05:00;;;;;;;27.27;13.35;;;;;;;;;;5038855;28;20033;-74
2020/12/07 14:07:26;;;;;;;32.47;15.10;;;;;;;;;;5039812;28;20033;-74
2020/12/07 14:09:52;;;;;;;36.33;14.85;;;;;;;;;;5043809;28;20274;-75
2020/12/07 14:12:17;;;;;;;44.67;18.08;;;;;;;;;;5044466;28;20040;-75
2020/12/07 14:14:43;;;;;;;42.40;16.73;;;;;;;;;;5041280;28;20021;-74
2020/12/07 14:17:09;;;;;;;49.67;17.25;;;;;;;;;;5041165;28;20118;-76
2020/12/07 14:40:22;;;;;;;74.85;21.08;;;;;;;;;;5050451;28;20112;-74
2020/12/07 14:42:47;;;;;;;80.72;21.33;;;;;;;;;;5051160;28;20060;-74
2020/12/07 14:45:16;;;;;;;92.32;22.35;;;;;;;;;;5039422;28;20060;-74
2020/12/07 14:47:47;;;;;;;76.82;22.02;;;;;;;;;;5030157;28;20100;-75
2020/12/07 14:52:44;;;;;;;90.80;22.25;;;;;;;;;;5030427;28;20049;-74
2020/12/07 14:55:23;;;;;;;86.25;22.67;;;;;;;;;;5031366;28;20024;-74
2020/12/07 15:05:44;;;;;;;93.65;22.40;;;;;;;;;;5030190;28;20045;-80
2020/12/07 15:16:07;;;;;;;92.07;21.35;;;;;;;;;;5049684;28;20102;-74
2020/12/07 15:18:33;;;;;;;86.95;21.67;;;;;;;;;;5049905;28;20443;-74
2020/12/07 15:20:58;;;;;;;83.55;21.08;;;;;;;;;;5049869;28;20029;-74
2020/12/07 15:23:23;;;;;;;100.43;22.40;;;;;;;;;;5049647;28;20039;-74
2020/12/07 15:25:48;;;;;;;95.63;23.10;;;;;;;;;;5050556;28;20108;-80
2020/12/07 15:28:14;;;;;;;107.07;21.88;;;;;;;;;;5050281;28;20047;-74
2020/12/07 15:30:39;;;;;;;86.97;21.10;;;;;;;;;;5049634;28;20980;-75
2020/12/07 15:33:04;;;;;;;111.93;22.77;;;;;;;;;;5043990;28;20013;-75
2020/12/07 15:35:30;;;;;;;91.65;21.48;;;;;;;;;;5038385;28;20066;-74
2020/12/07 15:37:55;;;;;;;102.47;23.27;;;;;;;;;;5041404;28;20453;-76
2020/12/07 15:40:20;;;;;;;105.90;24.02;;;;;;;;;;5050505;28;20024;-74
2020/12/07 15:42:45;;;;;;;109.10;23.67;;;;;;;;;;5049964;28;20072;-74
2020/12/07 15:45:12;;;;;;;154.00;25.00;;;;;;;;;;5049752;28;20354;-74
2020/12/07 15:47:37;;;;;;;129.35;24.35;;;;;;;;;;5049801;28;20028;-74
2020/12/07 15:50:02;;;;;;;109.63;25.27;;;;;;;;;;5049895;28;20041;-74
2020/12/07 15:52:28;;;;;;;129.18;27.27;;;;;;;;;;5049388;28;20020;-74
2020/12/07 15:54:53;;;;;;;144.35;27.60;;;;;;;;;;5050265;28;20036;-75
2020/12/07 15:57:19;;;;;;;128.70;26.42;;;;;;;;;;5050005;28;20040;-75
2020/12/07 15:59:44;;;;;;;133.75;26.48;;;;;;;;;;5049541;28;20503;-77
2020/12/07 16:02:09;;;;;;;169.02;29.38;;;;;;;;;;5049242;28;20041;-74
2020/12/07 16:04:35;;;;;;;127.65;27.70;;;;;;;;;;5049830;28;20033;-75
2020/12/07 16:07:00;;;;;;;154.32;31.33;;;;;;;;;;5049661;28;20028;-74
2020/12/07 16:09:27;;;;;;;147.32;31.77;;;;;;;;;;5050438;28;20484;-74
2020/12/07 16:11:52;;;;;;;181.32;36.25;;;;;;;;;;5031566;28;20079;-74
2020/12/07 16:14:18;;;;;;;192.27;44.13;;;;;;;;;;5029838;28;20454;-74
2020/12/07 16:16:43;;;;;;;204.07;39.28;;;;;;;;;;5029515;28;20024;-74
2020/12/07 16:19:08;;;;;;;151.82;32.95;;;;;;;;;;5029474;28;20041;-74
2020/12/07 16:21:33;;;;;;;158.48;28.15;;;;;;;;;;5029402;28;20017;-74
2020/12/07 16:23:59;;;;;;;181.93;29.58;;;;;;;;;;5032827;28;20089;-74
2020/12/07 16:26:24;;;;;;;168.13;24.65;;;;;;;;;;5031500;28;20112;-74
2020/12/07 16:28:50;;;;;;;146.55;26.58;;;;;;;;;;5033367;28;20017;-74
2020/12/07 16:31:25;;;;;;;153.45;28.60;;;;;;;;;;5030981;28;20045;-74
2020/12/07 16:33:51;;;;;;;174.82;27.75;;;;;;;;;;5033046;28;20037;-74
2020/12/07 16:36:16;;;;;;;165.90;27.63;;;;;;;;;;5033237;28;20071;-73
2020/12/07 16:38:41;;;;;;;172.60;29.30;;;;;;;;;;5033314;28;20037;-74
2020/12/07 16:41:06;;;;;;;188.73;35.65;;;;;;;;;;5032639;28;20029;-74
2020/12/07 16:43:32;;;;;;;149.13;31.23;;;;;;;;;;5032875;28;20017;-73
2020/12/07 16:45:57;;;;;;;151.70;30.45;;;;;;;;;;5032930;28;20037;-73
2020/12/07 16:48:22;;;;;;;154.02;30.77;;;;;;;;;;5033038;28;20034;-75
2020/12/07 16:50:47;;;;;;;176.38;29.77;;;;;;;;;;5043390;28;20044;-75
2020/12/07 16:53:13;;;;;;;143.80;28.08;;;;;;;;;;5041822;28;20052;-74
2020/12/07 16:55:38;;;;;;;157.45;30.85;;;;;;;;;;5042524;28;20029;-73
2020/12/07 16:58:03;;;;;;;168.57;32.83;;;;;;;;;;5043248;28;20075;-75
2020/12/07 17:00:29;;;;;;;112.57;27.55;;;;;;;;;;5038511;28;20025;-74
2020/12/07 17:02:54;;;;;;;106.35;26.85;;;;;;;;;;5041326;28;20182;-73
2020/12/07 17:05:19;;;;;;;95.57;26.15;;;;;;;;;;5043082;28;20013;-75
2020/12/07 17:07:44;;;;;;;106.95;25.70;;;;;;;;;;5041817;28;20041;-74
2020/12/07 17:10:10;;;;;;;99.28;25.30;;;;;;;;;;5043219;28;20156;-73
2020/12/07 17:12:36;;;;;;;105.18;24.73;;;;;;;;;;5040527;28;20021;-73
2020/12/07 17:15:02;;;;;;;121.85;25.35;;;;;;;;;;5039055;28;20032;-76
2020/12/07 17:17:28;;;;;;;104.25;24.08;;;;;;;;;;5042045;28;20435;-73
2020/12/07 17:19:53;;;;;;;102.78;27.48;;;;;;;;;;5031513;28;20087;-73
2020/12/07 17:22:18;;;;;;;124.10;25.40;;;;;;;;;;5033257;28;20040;-74
2020/12/07 17:24:43;;;;;;;110.88;27.08;;;;;;;;;;5032372;28;20025;-73
2020/12/07 17:27:09;;;;;;;96.53;26.55;;;;;;;;;;5032055;28;20319;-75
2020/12/07 17:29:35;;;;;;;119.15;27.88;;;;;;;;;;5032766;28;20037;-73
2020/12/07 17:32:02;;;;;;;117.32;29.17;;;;;;;;;;5032024;28;20040;-73
2020/12/07 17:34:27;;;;;;;125.88;28.92;;;;;;;;;;5031489;28;20088;-73
2020/12/07 17:36:52;;;;;;;132.45;32.70;;;;;;;;;;5031345;28;20117;-73
2020/12/07 17:39:18;;;;;;;141.32;31.90;;;;;;;;;;5031627;28;20057;-73
2020/12/07 17:41:43;;;;;;;138.52;32.75;;;;;;;;;;5030603;28;20022;-74
2020/12/07 17:44:08;;;;;;;119.50;31.50;;;;;;;;;;5031151;28;20117;-73
2020/12/07 17:46:34;;;;;;;109.93;30.02;;;;;;;;;;5030152;28;20087;-73
2020/12/07 17:48:59;;;;;;;119.55;31.85;;;;;;;;;;5041250;28;20021;-73
2020/12/07 17:51:24;;;;;;;118.88;30.30;;;;;;;;;;5034094;28;20045;-75
2020/12/07 17:53:50;;;;;;;139.35;33.38;;;;;;;;;;5034545;28;20036;-73
2020/12/07 17:56:15;;;;;;;154.70;34.95;;;;;;;;;;5034380;28;20462;-73
2020/12/07 17:58:41;;;;;;;129.23;33.00;;;;;;;;;;5032600;28;20072;-74
2020/12/07 18:01:06;;;;;;;150.85;35.65;;;;;;;;;;5032973;28;20045;-73
2020/12/07 18:03:31;;;;;;;144.27;35.85;;;;;;;;;;5034418;28;20393;-73
2020/12/07 18:05:56;;;;;;;149.73;36.97;;;;;;;;;;5033901;28;20496;-73
2020/12/07 18:08:23;;;;;;;149.68;35.83;;;;;;;;;;5034369;28;20029;-73
2020/12/07 18:10:54;;;;;;;182.55;36.25;;;;;;;;;;5042973;28;20072;-73
2020/12/07 18:13:20;;;;;;;201.60;38.83;;;;;;;;;;5054323;28;20104;-73
2020/12/07 18:15:46;;;;;;;184.93;37.53;;;;;;;;;;5054023;28;20029;-73
2020/12/07 18:18:12;;;;;;;224.27;40.42;;;;;;;;;;5053957;28;20032;-74
2020/12/07 18:20:37;;;;;;;206.27;38.63;;;;;;;;;;5048233;28;20427;-73
2020/12/07 18:23:03;;;;;;;166.07;38.30;;;;;;;;;;5039681;28;20025;-73
2020/12/07 18:25:28;;;;;;;227.75;38.50;;;;;;;;;;5041434;28;20104;-74
2020/12/07 18:27:53;;;;;;;215.30;38.95;;;;;;;;;;5034658;28;20381;-73
2020/12/07 18:30:19;;;;;;;178.70;37.08;;;;;;;;;;5032909;28;20489;-74
2020/12/07 18:32:44;;;;;;;203.85;37.88;;;;;;;;;;5019931;28;20059;-76
2020/12/07 18:35:10;;;;;;;183.00;34.28;;;;;;;;;;5042820;28;20079;-74
2020/12/07 18:37:35;;;;;;;230.43;38.28;;;;;;;;;;5038218;28;20033;-76
2020/12/07 18:40:01;;;;;;;216.70;37.72;;;;;;;;;;5039191;28;20456;-77
2020/12/07 18:42:26;;;;;;;226.80;36.42;;;;;;;;;;5031681;28;20041;-74
2020/12/07 18:44:51;;;;;;;282.85;40.78;;;;;;;;;;5042248;28;20091;-75
2020/12/07 18:47:17;;;;;;;207.75;37.97;;;;;;;;;;5035922;28;20017;-76
2020/12/07 18:49:42;;;;;;;202.73;39.92;;;;;;;;;;5040602;28;20132;-78
2020/12/07 18:52:07;;;;;;;173.65;34.25;;;;;;;;;;5029906;28;20041;-74
2020/12/07 18:54:33;;;;;;;208.88;39.05;;;;;;;;;;5045842;28;20024;-76
2020/12/07 18:56:58;;;;;;;163.13;34.58;;;;;;;;;;5030549;28;20060;-74
2020/12/07 18:59:23;;;;;;;210.93;47.08;;;;;;;;;;5033294;28;20104;-75
2020/12/07 19:01:52;;;;;;;238.90;54.22;;;;;;;;;;5030178;28;20128;-76
2020/12/07 19:04:18;;;;;;;234.18;42.55;;;;;;;;;;5025254;28;20029;-74
2020/12/07 19:06:44;;;;;;;165.52;36.67;;;;;;;;;;5029449;28;20481;-75
2020/12/07 19:09:09;;;;;;;166.20;36.10;;;;;;;;;;5028430;28;20075;-74
2020/12/07 19:11:34;;;;;;;137.05;35.33;;;;;;;;;;5044538;28;20127;-76
2020/12/07 19:13:59;;;;;;;195.77;48.42;;;;;;;;;;5038163;28;20381;-74
2020/12/07 19:16:25;;;;;;;177.40;51.03;;;;;;;;;;5039834;28;20792;-76
2020/12/07 19:18:50;;;;;;;259.50;51.30;;;;;;;;;;5039905;28;20092;-74
2020/12/07 19:21:18;;;;;;;191.43;44.95;;;;;;;;;;5039537;28;20723;-74
2020/12/07 19:23:45;;;;;;;310.75;52.03;;;;;;;;;;5037763;28;20017;-75
2020/12/07 19:26:10;;;;;;;241.77;48.33;;;;;;;;;;5037250;28;20449;-75
2020/12/07 19:28:35;;;;;;;190.98;45.38;;;;;;;;;;5039425;28;20057;-74
2020/12/07 19:31:01;;;;;;;181.00;48.22;;;;;;;;;;5047737;28;20027;-77
2020/12/07 19:33:27;;;;;;;254.52;60.75;;;;;;;;;;5040762;28;20053;-73
2020/12/07 19:35:52;;;;;;;266.55;74.60;;;;;;;;;;5039242;28;20039;-76
2020/12/07 19:38:18;;;;;;;283.25;62.95;;;;;;;;;;5033745;28;20359;-76
2020/12/07 19:40:43;;;;;;;217.23;58.00;;;;;;;;;;5046501;28;20048;-75
2020/12/07 19:43:08;;;;;;;169.75;51.28;;;;;;;;;;5048758;28;20037;-74
2020/12/07 19:45:34;;;;;;;205.50;49.20;;;;;;;;;;5048542;28;20033;-75
2020/12/07 19:47:59;;;;;;;195.40;46.97;;;;;;;;;;5048218;28;20040;-76
2020/12/07 19:50:25;;;;;;;223.45;50.45;;;;;;;;;;5026833;28;20107;-74
2020/12/07 19:52:50;;;;;;;258.13;52.13;;;;;;;;;;5025722;28;20030;-75
2020/12/07 19:55:15;;;;;;;237.38;47.35;;;;;;;;;;5033025;28;20392;-75
2020/12/07 19:57:40;;;;;;;196.88;45.88;;;;;;;;;;5037379;28;20037;-77
2020/12/07 20:00:07;;;;;;;375.63;57.88;;;;;;;;;;5037394;28;20034;-75
2020/12/07 20:02:32;;;;;;;244.88;49.20;;;;;;;;;;5045379;28;20057;-75
2020/12/07 20:04:57;;;;;;;178.60;45.22;;;;;;;;;;5030749;28;20395;-75
2020/12/07 20:07:23;;;;;;;235.80;46.67;;;;;;;;;;5038575;28;20771;-75
2020/12/07 20:09:48;;;;;;;246.38;46.08;;;;;;;;;;5035935;28;20071;-75
2020/12/07 20:12:14;;;;;;;182.80;42.83;;;;;;;;;;5038499;28;20091;-75
2020/12/07 20:14:39;;;;;;;275.73;50.10;;;;;;;;;;5040238;28;20044;-75
2020/12/07 20:17:05;;;;;;;236.45;45.53;;;;;;;;;;5033321;28;20035;-74
2020/12/07 20:19:30;;;;;;;224.18;47.65;;;;;;;;;;5040105;28;20029;-75
2020/12/07 20:21:55;;;;;;;226.20;48.95;;;;;;;;;;5040179;28;20480;-75
2020/12/07 20:24:20;;;;;;;202.00;43.75;;;;;;;;;;5028979;28;20069;-75
2020/12/07 20:26:46;;;;;;;174.00;42.67;;;;;;;;;;5026005;28;20476;-76
2020/12/07 20:29:12;;;;;;;231.02;44.45;;;;;;;;;;5031934;28;20017;-75
2020/12/07 20:31:37;;;;;;;230.27;43.30;;;;;;;;;;5035942;28;20128;-76
2020/12/07 20:34:02;;;;;;;176.02;37.67;;;;;;;;;;5038857;28;20041;-74
2020/12/07 20:36:29;;;;;;;137.55;38.30;;;;;;;;;;5029512;28;20105;-76
2020/12/07 20:38:55;;;;;;;170.02;37.13;;;;;;;;;;5040658;28;20040;-74
2020/12/07 20:41:23;;;;;;;145.93;34.30;;;;;;;;;;5033261;28;20017;-75
2020/12/07 20:43:48;;;;;;;117.78;31.88;;;;;;;;;;5033056;28;20788;-74
2020/12/07 20:46:14;;;;;;;160.25;33.83;;;;;;;;;;5025516;28;20034;-76
2020/12/07 20:48:39;;;;;;;160.30;35.35;;;;;;;;;;5034293;28;20557;-74
2020/12/07 20:51:04;;;;;;;106.85;30.55;;;;;;;;;;5031829;28;20036;-74
2020/12/07 20:53:30;;;;;;;110.35;30.55;;;;;;;;;;5048222;28;20043;-73
2020/12/07 20:55:55;;;;;;;124.38;31.98;;;;;;;;;;5017814;28;20128;-75
2020/12/07 20:58:20;;;;;;;124.05;33.22;;;;;;;;;;5023981;28;20021;-76
2020/12/07 21:00:46;;;;;;;132.80;35.03;;;;;;;;;;5024168;28;20489;-74
2020/12/07 21:03:11;;;;;;;100.50;30.85;;;;;;;;;;5028510;28;20489;-74
2020/12/07 21:05:36;;;;;;;112.68;32.75;;;;;;;;;;5031901;28;20036;-75
2020/12/07 21:08:01;;;;;;;107.78;29.02;;;;;;;;;;5044949;28;20066;-76
2020/12/07 21:10:27;;;;;;;97.88;28.17;;;;;;;;;;5040322;28;20048;-74
2020/12/07 21:12:52;;;;;;;116.68;30.05;;;;;;;;;;5042723;28;20031;-76
2020/12/07 21:15:17;;;;;;;116.70;30.33;;;;;;;;;;5028566;28;20372;-74
2020/12/07 21:17:43;;;;;;;171.18;32.47;;;;;;;;;;5029423;28;20092;-81
2020/12/07 21:20:08;;;;;;;252.82;34.50;;;;;;;;;;5040018;28;20059;-74
2020/12/07 21:22:33;;;;;;;252.57;32.90;;;;;;;;;;5039327;28;20935;-75
2020/12/07 21:24:59;;;;;;;317.05;37.17;;;;;;;;;;5036883;28;20048;-74
2020/12/07 21:27:24;;;;;;;315.20;37.60;;;;;;;;;;5033634;28;20499;-73
2020/12/07 21:29:49;;;;;;;472.35;39.92;;;;;;;;;;5040028;28;20038;-74
2020/12/07 21:32:14;;;;;;;491.17;44.70;;;;;;;;;;5041344;28;20045;-74
2020/12/07 21:34:40;;;;;;;361.67;39.75;;;;;;;;;;5029575;28;20454;-74
2020/12/07 21:37:05;;;;;;;266.40;38.40;;;;;;;;;;5042701;28;20095;-74
2020/12/07 21:39:30;;;;;;;232.05;38.83;;;;;;;;;;5032815;28;20515;-75
2020/12/07 21:41:58;;;;;;;312.00;42.67;;;;;;;;;;5030819;28;20041;-76
2020/12/07 21:44:23;;;;;;;530.05;107.68;;;;;;;;;;5025217;28;20539;-77
2020/12/07 21:46:48;;;;;;;414.27;77.00;;;;;;;;;;5027285;28;20042;-75
2020/12/07 21:49:13;;;;;;;486.80;56.05;;;;;;;;;;5045056;28;20048;-76
2020/12/07 21:51:39;;;;;;;507.35;57.83;;;;;;;;;;5037897;28;20060;-74
2020/12/07 21:54:05;;;;;;;368.52;48.88;;;;;;;;;;5035866;28;20041;-75
2020/12/07 21:56:30;;;;;;;626.97;61.03;;;;;;;;;;5030398;28;20017;-74
2020/12/07 21:58:55;;;;;;;494.48;56.63;;;;;;;;;;5041763;28;20643;-73
2020/12/07 22:01:21;;;;;;;448.08;53.63;;;;;;;;;;5029639;28;20056;-75
2020/12/07 22:03:47;;;;;;;391.30;50.95;;;;;;;;;;5034775;28;20040;-74
2020/12/07 22:06:12;;;;;;;483.05;56.05;;;;;;;;;;5034302;28;20036;-74
2020/12/07 22:08:39;;;;;;;504.92;56.92;;;;;;;;;;5030790;28;20030;-75
2020/12/07 22:11:05;;;;;;;398.30;47.45;;;;;;;;;;5043912;28;20032;-74
2020/12/07 22:13:31;;;;;;;529.55;56.10;;;;;;;;;;5039658;28;20482;-75
2020/12/07 22:15:56;;;;;;;408.98;49.65;;;;;;;;;;5032283;28;20037;-75
2020/12/07 22:18:21;;;;;;;280.25;44.03;;;;;;;;;;5016130;28;20030;-82
2020/12/07 22:20:46;;;;;;;321.33;43.38;;;;;;;;;;5029768;28;20037;-76
2020/12/07 22:23:12;;;;;;;370.05;43.38;;;;;;;;;;5033926;28;20056;-74
2020/12/07 22:25:39;;;;;;;200.80;36.75;;;;;;;;;;5028195;28;20049;-74
2020/12/07 22:28:05;;;;;;;212.38;36.72;;;;;;;;;;5027156;28;20648;-74
2020/12/07 22:30:30;;;;;;;171.95;34.47;;;;;;;;;;5025733;28;20042;-73
2020/12/07 22:32:55;;;;;;;302.50;40.53;;;;;;;;;;5027309;28;20033;-74
2020/12/07 22:35:20;;;;;;;211.68;34.78;;;;;;;;;;5030100;28;20033;-73
2020/12/07 22:37:46;;;;;;;167.05;34.20;;;;;;;;;;5024222;28;20433;-74
2020/12/07 22:40:11;;;;;;;153.70;32.00;;;;;;;;;;5029336;28;20100;-74
2020/12/07 22:42:36;;;;;;;143.32;31.33;;;;;;;;;;5029532;28;20041;-81
2020/12/07 22:45:02;;;;;;;135.88;32.58;;;;;;;;;;5030996;28;20445;-74
2020/12/07 22:47:27;;;;;;;177.50;34.38;;;;;;;;;;5028163;28;20029;-73
2020/12/07 22:49:53;;;;;;;172.25;34.38;;;;;;;;;;5028535;28;20132;-74
2020/12/07 22:52:18;;;;;;;161.02;34.40;;;;;;;;;;5029874;28;20041;-77
2020/12/07 22:54:44;;;;;;;165.52;33.25;;;;;;;;;;5040768;28;20017;-75
2020/12/07 22:57:09;;;;;;;128.93;29.25;;;;;;;;;;5035531;28;20029;-74
2020/12/07 22:59:34;;;;;;;99.07;26.63;;;;;;;;;;5029092;28;20037;-75
